Time;durP1;ratioP1;P1;durP2;ratioP2;P2;SDS_P1;SDS_P2;PMS_P1;PMS_P2;Temp;Humidity;BMP_temperature;BMP_pressure;BME280_temperature;BME280_humidity;BME280_pressure;Samples;Min_cycle;Max_cycle;Signal;HPM_P1;HPM_P2
2022/01/31 00:01:41;;;;;;;183.23;125.60;;;;;;;3.09;73.82;98787.63;5029159;28;20032;-59
2022/01/31 00:04:06;;;;;;;276.07;141.97;;;;;;;3.03;74.14;98774.00;5028446;28;20026;-60
2022/01/31 00:06:32;;;;;;;242.53;149.80;;;;;;;3.04;73.64;98788.38;5027551;28;20543;-60
2022/01/31 00:08:57;;;;;;;50.47;46.73;;;;;;;3.04;73.14;98775.72;5028397;28;20029;-60
2022/01/31 00:11:23;;;;;;;25.20;23.37;;;;;;;3.12;71.47;98774.13;5011336;28;20108;-59
2022/01/31 00:13:58;;;;;;;51.37;47.47;;;;;;;3.04;72.21;98771.50;5027618;28;20382;-61
2022/01/31 00:16:25;;;;;;;35.58;33.05;;;;;;;3.05;72.74;98772.38;5027696;28;20033;-60
2022/01/31 00:18:51;;;;;;;20.67;19.07;;;;;;;3.03;71.84;98768.94;5031367;28;20039;-59
2022/01/31 00:21:16;;;;;;;271.20;155.60;;;;;;;3.02;71.41;98765.56;5031407;28;20032;-58
2022/01/31 00:23:41;;;;;;;13.37;11.07;;;;;;;3.01;70.91;98756.25;5028510;28;20033;-59
2022/01/31 00:26:07;;;;;;;23.50;21.47;;;;;;;2.92;71.90;98773.88;5024858;28;20319;-57
2022/01/31 00:28:32;;;;;;;55.70;51.33;;;;;;;2.96;72.68;98764.66;5028022;28;20044;-61
2022/01/31 00:30:58;;;;;;;13.33;9.57;;;;;;;2.93;72.23;98765.44;5031240;28;20479;-61
2022/01/31 00:33:23;;;;;;;23.60;19.73;;;;;;;2.99;72.55;98767.22;5026429;28;20121;-60
2022/01/31 00:35:49;;;;;;;39.37;36.60;;;;;;;2.83;72.83;98757.72;5026279;28;20037;-60
2022/01/31 00:38:14;;;;;;;69.37;63.07;;;;;;;2.81;73.81;98760.22;5031284;28;20088;-60
2022/01/31 00:40:42;;;;;;;82.47;76.23;;;;;;;2.85;73.70;98753.50;5029865;28;20460;-61
2022/01/31 00:43:12;;;;;;;109.70;100.10;;;;;;;2.79;73.99;98748.38;5026794;28;20075;-61
2022/01/31 00:45:46;;;;;;;137.23;123.43;;;;;;;2.84;73.32;98749.31;5007811;28;20063;-59
2022/01/31 00:48:24;;;;;;;35.30;32.17;;;;;;;2.89;72.98;98752.72;5027436;28;20113;-58
2022/01/31 00:50:49;;;;;;;43.17;40.20;;;;;;;3.01;71.17;98742.78;5028353;28;20041;-58
2022/01/31 00:53:15;;;;;;;18.77;16.87;;;;;;;2.87;72.52;98749.31;5026560;28;20404;-60
2022/01/31 00:55:40;;;;;;;62.87;58.03;;;;;;;2.88;72.59;98744.28;5022816;28;20068;-60
2022/01/31 00:58:05;;;;;;;13.10;12.07;;;;;;;2.92;72.71;98745.19;5027820;28;20049;-60
2022/01/31 01:00:31;;;;;;;47.77;43.73;;;;;;;2.96;72.26;98736.78;5030724;28;20036;-60
2022/01/31 01:02:56;;;;;;;23.57;21.57;;;;;;;2.85;73.05;98756.03;5026329;28;20571;-59
2022/01/31 01:05:22;;;;;;;33.67;30.97;;;;;;;2.83;73.70;98750.13;5025890;28;20193;-60
2022/01/31 01:07:47;;;;;;;33.97;31.47;;;;;;;2.92;72.65;98751.09;5032722;28;20025;-59
2022/01/31 01:10:15;;;;;;;37.67;34.80;;;;;;;2.87;73.19;98745.13;5034075;28;20071;-60
2022/01/31 01:12:42;;;;;;;49.93;45.67;;;;;;;2.84;74.01;98740.03;5030003;28;20052;-60
2022/01/31 01:15:08;;;;;;;31.37;28.80;;;;;;;2.73;75.14;98750.00;5027665;28;20490;-61
2022/01/31 01:17:34;;;;;;;50.43;46.63;;;;;;;2.80;74.76;98738.25;5031481;28;20342;-59
2022/01/31 01:19:59;;;;;;;46.50;43.30;;;;;;;2.88;73.07;98735.84;5033071;28;20649;-59
2022/01/31 01:22:24;;;;;;;43.37;40.47;;;;;;;2.90;72.83;98726.56;5031119;28;20855;-59
2022/01/31 01:24:50;;;;;;;32.63;29.67;;;;;;;2.82;73.44;98726.47;5029378;28;20025;-58
2022/01/31 01:27:19;;;;;;;40.63;37.63;;;;;;;2.92;72.58;98735.91;5015905;28;20040;-59
2022/01/31 01:29:46;;;;;;;69.73;63.50;;;;;;;2.88;72.53;98743.44;5034609;28;20041;-58
2022/01/31 01:32:12;;;;;;;42.87;38.77;;;;;;;2.94;71.66;98718.19;5029873;28;20029;-59
2022/01/31 01:34:37;;;;;;;38.77;35.37;;;;;;;2.87;71.18;98707.16;5029773;28;20090;-59
2022/01/31 01:37:03;;;;;;;26.60;23.83;;;;;;;2.89;71.64;98699.53;5031964;28;20283;-58
2022/01/31 01:39:29;;;;;;;37.43;34.80;;;;;;;2.94;70.80;98713.13;5032868;28;20209;-59
2022/01/31 01:41:55;;;;;;;26.50;24.53;;;;;;;2.96;70.40;98704.72;5028219;28;20040;-59
2022/01/31 01:44:50;;;;;;;26.77;23.57;;;;;;;2.83;72.21;98705.41;5030566;28;20405;-59
2022/01/31 01:47:22;;;;;;;21.20;19.45;;;;;;;2.81;71.96;98691.00;5034082;28;20033;-59
2022/01/31 01:49:48;;;;;;;22.47;20.80;;;;;;;2.68;73.33;98711.09;5030739;28;20149;-58
2022/01/31 01:52:15;;;;;;;13.27;12.13;;;;;;;2.87;71.50;98683.50;5028137;28;20025;-60
2022/01/31 01:54:41;;;;;;;22.47;20.37;;;;;;;2.80;71.49;98690.16;5031521;28;20506;-60
2022/01/31 01:57:07;;;;;;;47.77;44.17;;;;;;;2.89;71.99;98689.41;5033325;28;20036;-60
2022/01/31 01:59:34;;;;;;;19.67;18.07;;;;;;;2.84;71.18;98693.59;5032144;28;20381;-59
2022/01/31 02:02:01;;;;;;;18.23;16.67;;;;;;;2.76;72.23;98678.28;5033774;28;20029;-60
2022/01/31 02:04:27;;;;;;;49.60;45.77;;;;;;;2.72;72.12;98672.34;5032622;28;20037;-60
2022/01/31 02:06:53;;;;;;;73.23;66.23;;;;;;;2.80;71.92;98677.50;5033569;28;20029;-60
2022/01/31 02:09:22;;;;;;;57.33;53.00;;;;;;;2.77;71.77;98667.34;5031535;28;20079;-59
2022/01/31 02:11:47;;;;;;;88.77;80.80;;;;;;;2.75;71.88;98669.88;5027921;28;20068;-60
2022/01/31 02:14:13;;;;;;;73.17;67.00;;;;;;;2.81;71.62;98663.16;5031484;28;20555;-60
2022/01/31 02:16:38;;;;;;;57.13;52.07;;;;;;;2.73;72.68;98660.56;5031517;28;20383;-59
2022/01/31 02:19:04;;;;;;;74.37;67.57;;;;;;;2.76;73.73;98645.38;5010520;28;20410;-60
2022/01/31 02:21:29;;;;;;;56.57;52.13;;;;;;;2.76;73.74;98646.25;5028417;28;20092;-59
2022/01/31 02:23:55;;;;;;;61.57;56.47;;;;;;;2.77;73.80;98624.31;5032807;28;20032;-59
2022/01/31 02:26:20;;;;;;;49.53;45.43;;;;;;;2.80;74.06;98638.72;5034219;28;20055;-60
2022/01/31 02:28:46;;;;;;;30.67;27.93;;;;;;;2.73;75.19;98640.28;5027108;28;20342;-59
2022/01/31 02:31:11;;;;;;;29.57;27.40;;;;;;;2.64;76.17;98623.31;5027718;28;20036;-60
2022/01/31 02:33:37;;;;;;;27.03;24.97;;;;;;;2.69;76.31;98631.81;5030108;28;20443;-59
2022/01/31 02:36:04;;;;;;;23.37;21.17;;;;;;;2.73;76.16;98630.19;5030749;28;20067;-60
2022/01/31 02:38:30;;;;;;;23.67;18.63;;;;;;;2.75;76.70;98628.53;5029274;28;20267;-60
2022/01/31 02:40:57;;;;;;;25.00;23.03;;;;;;;2.67;77.63;98618.28;5031439;28;20024;-58
2022/01/31 02:43:25;;;;;;;35.60;32.40;;;;;;;2.70;77.40;98612.44;5035532;28;20383;-58
2022/01/31 02:45:51;;;;;;;23.43;21.33;;;;;;;2.64;78.31;98609.81;5030786;28;20152;-60
2022/01/31 02:48:19;;;;;;;22.30;20.07;;;;;;;2.53;79.20;98608.84;5030458;28;20454;-60
2022/01/31 02:50:45;;;;;;;24.30;22.30;;;;;;;2.48;80.61;98611.31;5029785;28;20185;-61
2022/01/31 02:53:22;;;;;;;46.30;42.40;;;;;;;2.49;80.37;98602.06;5029135;28;20524;-59
2022/01/31 02:55:48;;;;;;;37.13;33.97;;;;;;;2.53;80.72;98601.25;5030778;28;20040;-60
2022/01/31 02:58:15;;;;;;;58.70;53.97;;;;;;;2.61;80.55;98604.72;5030939;28;20042;-60
2022/01/31 03:00:42;;;;;;;57.57;52.87;;;;;;;2.58;80.84;98595.44;5035670;28;20025;-60
2022/01/31 03:03:08;;;;;;;19.03;17.53;;;;;;;2.57;81.67;98582.75;5033491;28;20345;-59
2022/01/31 03:05:34;;;;;;;59.03;54.80;;;;;;;2.52;82.08;98582.69;5026963;28;20018;-60
2022/01/31 03:08:00;;;;;;;35.97;32.73;;;;;;;2.43;82.81;98576.66;5029145;28;20082;-60
2022/01/31 03:10:26;;;;;;;35.03;31.97;;;;;;;2.40;83.95;98571.56;5031348;28;20029;-59
2022/01/31 03:12:51;;;;;;;26.10;22.33;;;;;;;2.38;84.39;98568.19;5031834;28;20028;-60
2022/01/31 03:15:17;;;;;;;46.77;42.87;;;;;;;2.30;85.22;98560.50;5029185;28;20066;-61
2022/01/31 03:17:47;;;;;;;43.10;38.97;;;;;;;2.38;85.45;98563.13;5029783;28;20781;-60
2022/01/31 03:20:14;;;;;;;19.13;17.27;;;;;;;2.47;85.01;98555.63;5031979;28;20025;-61
2022/01/31 03:22:39;;;;;;;31.00;27.93;;;;;;;2.38;85.22;98548.78;5031362;28;20061;-60
2022/01/31 03:25:05;;;;;;;19.70;16.13;;;;;;;2.38;86.08;98547.97;5030128;28;20068;-59
2022/01/31 03:27:30;;;;;;;61.40;56.23;;;;;;;2.38;85.93;98551.31;5027320;28;20120;-60
2022/01/31 03:29:56;;;;;;;25.47;23.33;;;;;;;2.38;86.37;98535.31;5028875;28;20042;-60
2022/01/31 03:32:21;;;;;;;334.90;197.77;;;;;;;2.29;86.69;98528.47;5029628;28;20179;-59
2022/01/31 03:34:47;;;;;;;103.77;85.27;;;;;;;2.24;86.84;98514.91;5027807;28;20136;-59
2022/01/31 03:37:12;;;;;;;20.07;18.50;;;;;;;2.02;88.53;98518.00;5029870;28;20067;-59
2022/01/31 03:39:38;;;;;;;19.17;17.40;;;;;;;1.88;90.59;98511.91;5032061;28;20502;-58
2022/01/31 03:42:03;;;;;;;19.20;16.67;;;;;;;1.72;92.02;98519.28;5030311;28;20145;-60
2022/01/31 03:44:30;;;;;;;50.00;45.80;;;;;;;1.56;93.54;98494.63;5026408;28;20056;-60
2022/01/31 03:46:56;;;;;;;13.57;10.90;;;;;;;1.40;95.11;98482.59;5030259;28;20373;-60
2022/01/31 03:49:21;;;;;;;58.83;54.20;;;;;;;1.28;97.01;98495.03;5029726;28;20041;-60
2022/01/31 03:51:47;;;;;;;45.33;41.40;;;;;;;1.24;98.79;98480.66;5031775;28;20414;-60
2022/01/31 03:54:12;;;;;;;38.03;35.00;;;;;;;1.17;99.23;98483.94;5029582;28;20140;-60
2022/01/31 03:56:38;;;;;;;121.13;109.23;;;;;;;1.10;100.00;98479.63;5028780;28;20052;-59
2022/01/31 03:59:03;;;;;;;42.53;39.60;;;;;;;1.04;100.00;98482.03;5029728;28;20040;-60
2022/01/31 04:01:28;;;;;;;200.07;179.60;;;;;;;0.98;100.00;98471.88;5029525;28;20494;-60
2022/01/31 04:03:54;;;;;;;213.50;189.67;;;;;;;0.87;100.00;98472.53;5026209;28;20029;-60
2022/01/31 04:06:19;;;;;;;85.87;77.93;;;;;;;0.84;100.00;98474.16;5028132;28;20391;-62
2022/01/31 04:08:45;;;;;;;87.87;79.93;;;;;;;0.74;100.00;98474.81;5031131;28;20032;-59
2022/01/31 04:11:11;;;;;;;89.57;81.90;;;;;;;0.70;100.00;98473.91;5028771;28;20501;-59
2022/01/31 04:13:37;;;;;;;42.17;38.33;;;;;;;0.77;100.00;98469.81;5026175;28;20873;-61
2022/01/31 04:16:03;;;;;;;38.63;35.57;;;;;;;0.81;100.00;98459.78;5031289;28;20164;-60
2022/01/31 04:18:29;;;;;;;96.00;86.77;;;;;;;0.73;100.00;98463.88;5030274;28;20112;-60
2022/01/31 04:20:54;;;;;;;78.97;72.20;;;;;;;0.65;100.00;98454.47;5029077;28;20033;-59
2022/01/31 04:23:22;;;;;;;89.20;81.20;;;;;;;0.56;100.00;98444.22;5027873;28;20116;-61
2022/01/31 04:28:21;;;;;;;48.00;44.47;;;;;;;0.45;100.00;98434.81;5030708;28;20041;-60
2022/01/31 04:31:11;;;;;;;34.30;31.30;;;;;;;0.40;100.00;98426.31;5030577;28;20038;-60
2022/01/31 04:33:37;;;;;;;42.27;39.43;;;;;;;0.40;100.00;98435.53;5028609;28;20148;-60
2022/01/31 04:36:03;;;;;;;54.90;50.70;;;;;;;0.38;100.00;98432.16;5027093;28;20044;-60
2022/01/31 04:38:29;;;;;;;44.10;41.20;;;;;;;0.37;100.00;98438.88;5027939;28;20032;-60
2022/01/31 04:40:54;;;;;;;30.43;27.60;;;;;;;0.31;100.00;98432.84;5026269;28;20025;-60
2022/01/31 04:43:20;;;;;;;25.77;23.27;;;;;;;0.30;100.00;98428.63;5028895;28;20100;-59
2022/01/31 04:45:47;;;;;;;87.90;80.03;;;;;;;0.32;100.00;98420.28;5014167;28;20085;-59
2022/01/31 04:48:18;;;;;;;154.77;124.17;;;;;;;0.31;100.00;98418.59;5013789;28;20092;-57
2022/01/31 04:50:44;;;;;;;98.10;88.63;;;;;;;0.29;100.00;98401.75;5006908;28;20331;-58
2022/01/31 04:53:10;;;;;;;82.97;75.23;;;;;;;0.29;100.00;98401.75;5012935;28;20789;-59
2022/01/31 04:55:36;;;;;;;50.93;46.13;;;;;;;0.35;100.00;98396.78;5014587;28;20109;-62
2022/01/31 04:58:03;;;;;;;56.03;51.33;;;;;;;0.31;100.00;98375.72;5015245;28;20044;-58
2022/01/31 05:00:28;;;;;;;38.83;35.73;;;;;;;0.27;100.00;98385.72;5009280;28;20025;-59
2022/01/31 05:02:54;;;;;;;83.77;76.13;;;;;;;0.19;100.00;98372.16;5009026;28;20056;-58
2022/01/31 05:05:20;;;;;;;65.20;60.00;;;;;;;0.13;100.00;98369.53;5013788;28;20117;-60
2022/01/31 05:07:45;;;;;;;51.77;47.70;;;;;;;0.08;100.00;98359.38;5015799;28;20116;-59
2022/01/31 05:10:11;;;;;;;53.70;49.37;;;;;;;0.00;100.00;98341.56;5009744;28;20029;-58
2022/01/31 05:12:36;;;;;;;67.17;60.87;;;;;;;-0.03;100.00;98336.50;5009104;28;20030;-60
2022/01/31 05:15:04;;;;;;;88.73;80.03;;;;;;;0.00;100.00;98334.00;5012726;28;20136;-59
2022/01/31 05:17:29;;;;;;;66.10;59.97;;;;;;;0.00;100.00;98306.28;5012696;28;20091;-60
2022/01/31 05:19:54;;;;;;;55.53;51.03;;;;;;;-0.02;100.00;98299.53;5009143;28;20034;-61
2022/01/31 05:22:20;;;;;;;64.40;58.37;;;;;;;-0.05;100.00;98310.44;5011531;28;20037;-59
2022/01/31 05:24:45;;;;;;;42.63;39.03;;;;;;;-0.08;100.00;98301.94;5012787;28;20056;-57
2022/01/31 05:27:10;;;;;;;64.70;58.93;;;;;;;-0.10;100.00;98288.50;5011744;28;20029;-59
2022/01/31 05:29:36;;;;;;;52.87;47.83;;;;;;;-0.01;100.00;98281.94;5010956;28;20041;-59
2022/01/31 05:32:02;;;;;;;50.97;46.43;;;;;;;-0.01;100.00;98274.38;5009804;28;20098;-60
2022/01/31 05:34:27;;;;;;;41.67;37.83;;;;;;;-0.09;100.00;98258.31;5012412;28;20433;-60
2022/01/31 05:36:55;;;;;;;52.23;47.77;;;;;;;0.04;100.00;98266.91;5010321;28;20040;-58
2022/01/31 05:39:25;;;;;;;30.57;27.63;;;;;;;0.07;100.00;98259.41;5011301;28;20037;-58
2022/01/31 05:41:51;;;;;;;45.20;41.43;;;;;;;0.12;100.00;98262.00;5012724;28;20034;-60
2022/01/31 05:44:17;;;;;;;38.33;35.10;;;;;;;0.07;100.00;98250.97;5018129;28;20181;-58
2022/01/31 05:46:42;;;;;;;35.17;32.17;;;;;;;0.07;100.00;98240.91;5010143;28;20552;-59
2022/01/31 05:49:08;;;;;;;18.87;16.33;;;;;;;0.08;100.00;98240.09;5028787;28;20041;-60
2022/01/31 05:52:04;;;;;;;28.70;26.17;;;;;;;0.14;100.00;98255.28;5031653;28;20033;-60
2022/01/31 05:54:31;;;;;;;20.33;16.17;;;;;;;0.07;100.00;98256.03;5029197;28;20120;-59
2022/01/31 05:56:58;;;;;;;27.30;24.70;;;;;;;0.15;100.00;98246.91;5027932;28;20037;-59
2022/01/31 05:59:24;;;;;;;14.63;7.13;;;;;;;0.18;100.00;98249.47;5027032;28;20400;-59
2022/01/31 06:01:49;;;;;;;14.00;7.93;;;;;;;0.17;100.00;98245.28;5031887;28;20037;-60
2022/01/31 06:04:15;;;;;;;34.10;31.07;;;;;;;0.15;100.00;98229.25;5031975;28;20029;-59
2022/01/31 06:06:40;;;;;;;56.90;51.13;;;;;;;0.14;100.00;98235.13;5028501;28;20053;-60
2022/01/31 06:09:06;;;;;;;53.30;48.93;;;;;;;0.10;100.00;98215.75;5028788;28;20028;-61
2022/01/31 06:11:34;;;;;;;31.00;26.30;;;;;;;0.13;100.00;98205.72;5030998;28;20022;-61
2022/01/31 06:14:01;;;;;;;33.97;30.47;;;;;;;0.15;100.00;98204.06;5028736;28;20060;-53
2022/01/31 06:16:27;;;;;;;52.43;48.20;;;;;;;0.21;100.00;98176.44;5030471;28;20040;-57
2022/01/31 06:18:52;;;;;;;76.50;69.57;;;;;;;0.25;100.00;98156.34;5030911;28;20523;-58
2022/01/31 06:21:18;;;;;;;144.43;112.47;;;;;;;0.32;100.00;98145.50;5033169;28;20148;-59
2022/01/31 06:23:43;;;;;;;21.83;19.93;;;;;;;0.27;100.00;98136.19;5028511;28;20029;-57
2022/01/31 06:26:09;;;;;;;26.70;24.23;;;;;;;0.35;100.00;98132.09;5028205;28;20037;-59
2022/01/31 06:28:35;;;;;;;23.07;21.20;;;;;;;0.30;100.00;98126.97;5033902;28;20033;-59
2022/01/31 06:31:00;;;;;;;108.20;94.17;;;;;;;0.24;100.00;98128.59;5030446;28;20156;-57
2022/01/31 06:33:26;;;;;;;29.47;26.57;;;;;;;0.26;100.00;98122.72;5029819;28;20322;-57
2022/01/31 06:35:51;;;;;;;66.23;53.47;;;;;;;0.41;100.00;98122.09;5027837;28;20108;-58
2022/01/31 06:38:17;;;;;;;125.13;111.23;;;;;;;0.36;100.00;98136.31;5018104;28;20476;-57
2022/01/31 06:40:42;;;;;;;240.73;148.73;;;;;;;0.37;100.00;98148.09;5032397;28;20033;-59
2022/01/31 06:43:08;;;;;;;198.67;132.97;;;;;;;0.38;100.00;98165.75;5034286;28;20032;-56
2022/01/31 06:45:34;;;;;;;179.10;137.23;;;;;;;0.41;100.00;98175.03;5033511;28;20057;-56
2022/01/31 06:48:00;;;;;;;18.23;6.13;;;;;;;0.46;100.00;98175.94;5036431;28;20102;-57
2022/01/31 06:50:26;;;;;;;128.77;106.13;;;;;;;0.51;100.00;98153.31;5035440;28;20472;-58
2022/01/31 06:52:55;;;;;;;18.10;7.50;;;;;;;0.53;100.00;98162.59;5034327;28;20383;-56
2022/01/31 06:55:21;;;;;;;143.70;117.10;;;;;;;0.55;100.00;98175.22;5031342;28;20120;-60
2022/01/31 06:57:49;;;;;;;14.20;12.60;;;;;;;0.67;100.00;98193.03;5034132;28;20044;-58
2022/01/31 07:00:17;;;;;;;21.63;9.40;;;;;;;0.68;100.00;98195.56;5034341;28;20065;-58
2022/01/31 07:02:43;;;;;;;20.83;15.43;;;;;;;0.69;100.00;98193.88;5031328;28;20089;-60
2022/01/31 07:05:09;;;;;;;288.67;163.70;;;;;;;0.72;100.00;98191.44;5031349;28;20034;-61
2022/01/31 07:07:34;;;;;;;30.50;20.17;;;;;;;0.78;100.00;98189.81;5031112;28;20132;-60
2022/01/31 07:10:02;;;;;;;22.03;10.40;;;;;;;0.79;100.00;98178.91;5038353;28;20383;-61
2022/01/31 07:12:33;;;;;;;18.07;12.07;;;;;;;0.91;100.00;98174.00;5029963;28;20025;-61
2022/01/31 07:15:00;;;;;;;22.80;10.67;;;;;;;0.91;100.00;98174.00;5029475;28;20472;-61
2022/01/31 07:17:25;;;;;;;22.73;15.30;;;;;;;0.81;100.00;98166.28;5033504;28;20823;-61
2022/01/31 07:19:51;;;;;;;21.67;10.20;;;;;;;0.85;100.00;98165.50;5030618;28;20037;-60
2022/01/31 07:22:19;;;;;;;34.93;14.23;;;;;;;0.85;100.00;98156.25;5030038;28;20029;-61
2022/01/31 07:24:51;;;;;;;33.67;18.00;;;;;;;0.86;100.00;98155.44;5029718;28;20557;-58
2022/01/31 07:27:17;;;;;;;25.40;10.70;;;;;;;0.86;100.00;98141.97;5032693;28;20356;-61
2022/01/31 07:29:44;;;;;;;31.40;12.60;;;;;;;0.87;100.00;98128.53;5031528;28;20065;-61
2022/01/31 07:32:11;;;;;;;72.57;64.80;;;;;;;0.94;100.00;98135.31;5029516;28;20079;-60
2022/01/31 07:34:38;;;;;;;70.27;62.57;;;;;;;0.93;100.00;98142.03;5033156;28;20029;-60
2022/01/31 07:37:04;;;;;;;123.27;110.90;;;;;;;0.88;100.00;98135.25;5035446;28;20033;-61
2022/01/31 07:39:29;;;;;;;117.73;105.87;;;;;;;0.98;100.00;98142.09;5033706;28;20098;-61
2022/01/31 07:41:55;;;;;;;66.17;46.13;;;;;;;1.00;100.00;98137.06;5033489;28;20516;-60
2022/01/31 07:44:21;;;;;;;16.83;6.67;;;;;;;1.07;100.00;98136.28;5029910;28;20053;-60
2022/01/31 07:46:48;;;;;;;21.90;7.37;;;;;;;1.21;100.00;98149.91;5011994;28;20075;-61
2022/01/31 07:49:14;;;;;;;12.73;6.13;;;;;;;1.42;100.00;98134.13;5009074;28;20044;-60
2022/01/31 07:51:40;;;;;;;14.07;5.50;;;;;;;1.60;100.00;98134.28;5006677;28;20033;-59
2022/01/31 07:54:07;;;;;;;11.57;5.23;;;;;;;1.72;100.00;98136.91;4992300;28;20105;-60
2022/01/31 07:56:32;;;;;;;17.20;7.07;;;;;;;1.82;100.00;98144.53;5011989;28;20468;-60
2022/01/31 07:58:58;;;;;;;17.20;6.70;;;;;;;1.77;100.00;98138.63;5009905;28;20044;-60
2022/01/31 08:01:26;;;;;;;16.37;4.87;;;;;;;1.80;100.00;98137.81;5011290;28;20034;-57
2022/01/31 08:03:52;;;;;;;18.00;5.43;;;;;;;1.92;100.00;98145.47;5014159;28;20022;-60
2022/01/31 08:06:17;;;;;;;9.37;4.30;;;;;;;1.94;100.00;98131.19;5011202;28;20037;-60
2022/01/31 08:08:43;;;;;;;17.70;4.97;;;;;;;2.01;100.00;98125.31;5008283;28;20034;-58
2022/01/31 08:11:09;;;;;;;11.47;4.63;;;;;;;2.04;100.00;98119.41;5010591;28;20187;-58
2022/01/31 08:13:34;;;;;;;15.43;4.37;;;;;;;2.16;100.00;98117.00;5012928;28;20091;-58
2022/01/31 08:16:09;;;;;;;16.47;4.97;;;;;;;2.18;100.00;98115.31;5009962;28;20029;-58
2022/01/31 08:18:41;;;;;;;20.85;12.55;;;;;;;2.34;100.00;98113.69;5005429;28;20060;-58
2022/01/31 08:21:08;;;;;;;15.00;6.90;;;;;;;2.40;100.00;98094.34;5007150;28;20037;-59
2022/01/31 08:23:33;;;;;;;9.93;4.63;;;;;;;2.53;99.67;98085.13;5008255;28;20025;-59
2022/01/31 08:26:01;;;;;;;20.73;6.50;;;;;;;2.55;97.52;98069.09;5006235;28;20373;-58
2022/01/31 08:28:35;;;;;;;20.23;9.23;;;;;;;2.56;97.30;98080.91;5009057;28;20033;-60
2022/01/31 08:31:13;;;;;;;20.50;5.87;;;;;;;2.58;96.03;98081.78;5013089;28;20068;-60
2022/01/31 08:33:44;;;;;;;17.33;5.70;;;;;;;2.65;97.36;98067.47;5013980;28;20629;-59
2022/01/31 08:36:10;;;;;;;13.00;6.73;;;;;;;2.66;97.56;98064.09;5014001;28;20083;-60
2022/01/31 08:38:38;;;;;;;9.37;5.00;;;;;;;2.66;96.52;98067.47;5007584;28;20057;-59
2022/01/31 08:41:05;;;;;;;15.47;6.23;;;;;;;2.52;95.11;98070.78;5008289;28;20408;-60
2022/01/31 08:43:32;;;;;;;9.47;3.93;;;;;;;2.44;95.93;98078.34;5011641;28;20065;-60
2022/01/31 08:45:58;;;;;;;13.13;5.13;;;;;;;2.36;97.56;98061.44;5028829;28;20081;-59
2022/01/31 08:48:25;;;;;;;11.17;4.00;;;;;;;2.38;98.54;98065.66;5030193;28;20059;-59
2022/01/31 08:50:50;;;;;;;16.27;5.50;;;;;;;2.33;98.71;98063.97;5012387;28;20098;-60
2022/01/31 08:53:17;;;;;;;12.17;5.33;;;;;;;2.29;97.84;98061.41;5033504;28;20403;-60
2022/01/31 08:55:51;;;;;;;13.27;3.80;;;;;;;2.33;98.46;98053.84;5031902;28;20032;-59
2022/01/31 08:58:18;;;;;;;8.55;4.28;;;;;;;2.41;98.07;98048.00;5029141;28;20037;-60
2022/01/31 09:00:48;;;;;;;9.40;3.70;;;;;;;2.33;99.38;98036.16;5034124;28;20037;-60
2022/01/31 09:05:39;;;;;;;14.67;6.80;;;;;;;2.32;100.00;98030.25;5031078;28;20041;-59
2022/01/31 09:08:05;;;;;;;12.40;3.00;;;;;;;2.22;100.00;98039.47;5031311;28;20033;-61
2022/01/31 09:10:31;;;;;;;20.90;19.20;;;;;;;2.30;100.00;98031.91;5013740;28;20035;-58
2022/01/31 09:12:56;;;;;;;48.23;44.57;;;;;;;2.25;100.00;98008.28;5030693;28;20044;-57
2022/01/31 09:15:22;;;;;;;12.63;6.53;;;;;;;2.35;100.00;98006.63;5030079;28;20463;-61
2022/01/31 09:17:48;;;;;;;13.53;5.40;;;;;;;2.27;99.28;98004.09;5028749;28;20037;-59
2022/01/31 09:20:14;;;;;;;9.57;3.90;;;;;;;2.30;100.00;98019.25;5030656;28;20442;-61
2022/01/31 09:22:41;;;;;;;4.27;2.80;;;;;;;2.30;98.43;98007.47;5034741;28;20037;-61
2022/01/31 09:25:07;;;;;;;11.23;3.93;;;;;;;2.38;98.06;97977.13;5029949;28;20101;-59
2022/01/31 09:27:33;;;;;;;27.37;25.03;;;;;;;2.35;97.72;97973.75;5029241;28;20104;-61
2022/01/31 09:29:59;;;;;;;25.53;21.90;;;;;;;2.51;97.85;97957.78;5036085;28;20049;-60
2022/01/31 09:32:25;;;;;;;15.27;12.17;;;;;;;2.73;97.38;97937.56;5033803;28;20500;-59
2022/01/31 09:34:51;;;;;;;26.60;24.13;;;;;;;2.88;97.07;97940.97;5031830;28;20033;-59
2022/01/31 09:37:20;;;;;;;23.07;21.37;;;;;;;2.95;97.67;97946.03;5034140;28;20037;-59
2022/01/31 09:39:47;;;;;;;16.53;5.33;;;;;;;2.92;97.58;97942.66;5036506;28;20037;-59
2022/01/31 09:42:16;;;;;;;10.33;5.13;;;;;;;2.99;95.77;97936.72;5038540;28;20380;-60
2022/01/31 09:47:22;;;;;;;11.20;6.35;;;;;;;3.07;91.34;97915.63;5036075;28;20033;-62
2022/01/31 09:49:47;;;;;;;11.93;3.30;;;;;;;3.17;91.13;97927.44;5037300;28;20471;-62
2022/01/31 09:52:13;;;;;;;8.50;4.20;;;;;;;3.22;90.18;97923.19;5035258;28;20032;-62
2022/01/31 09:54:38;;;;;;;13.07;5.67;;;;;;;3.22;91.64;97925.72;5034918;28;20033;-64
2022/01/31 09:57:04;;;;;;;9.83;4.63;;;;;;;3.20;90.29;97921.53;5035299;28;20167;-62
2022/01/31 09:59:30;;;;;;;8.33;4.23;;;;;;;3.28;88.83;97898.72;5037086;28;20479;-62
2022/01/31 10:01:57;;;;;;;14.50;4.30;;;;;;;3.17;90.18;97893.69;5034028;28;20336;-61
2022/01/31 10:04:25;;;;;;;62.83;56.27;;;;;;;3.12;91.11;97900.44;5032688;28;20029;-62
2022/01/31 10:06:56;;;;;;;13.67;4.83;;;;;;;2.96;91.07;97894.56;5018341;28;20525;-61
2022/01/31 10:09:21;;;;;;;14.73;6.00;;;;;;;2.78;93.45;97892.03;5035102;28;20033;-62
2022/01/31 10:11:55;;;;;;;8.80;4.27;;;;;;;2.72;94.29;97866.72;5034557;28;20662;-61
2022/01/31 10:17:27;;;;;;;9.40;4.60;;;;;;;2.56;97.15;97868.41;5038700;28;20083;-61
2022/01/31 10:19:56;;;;;;;32.60;25.17;;;;;;;2.49;98.48;97874.31;5033922;28;20210;-61
2022/01/31 10:22:24;;;;;;;11.43;4.60;;;;;;;2.44;99.00;97880.19;5035284;28;20122;-62
2022/01/31 10:24:52;;;;;;;12.67;4.73;;;;;;;2.42;97.11;97870.06;5035386;28;20044;-63
2022/01/31 10:27:22;;;;;;;14.87;4.57;;;;;;;2.49;95.33;97849.03;5038937;28;20064;-59
2022/01/31 10:29:51;;;;;;;12.33;5.77;;;;;;;2.31;98.68;97874.28;5034816;28;20040;-61
2022/01/31 10:32:29;;;;;;;10.07;4.33;;;;;;;2.45;99.19;97870.09;5031995;28;20040;-61
2022/01/31 10:35:01;;;;;;;31.87;16.03;;;;;;;2.52;97.70;97861.66;5035053;28;20025;-60
2022/01/31 10:37:29;;;;;;;16.67;9.20;;;;;;;2.50;98.48;97867.56;5036109;28;20037;-60
2022/01/31 10:45:36;;;;;;;9.87;5.03;;;;;;;2.57;95.87;97842.28;5031968;28;19927;-58
2022/01/31 10:53:46;;;;;;;20.77;6.33;;;;;;;2.82;98.09;97832.97;5033272;28;20473;-60
2022/01/31 10:56:12;;;;;;;10.43;5.07;;;;;;;2.96;96.07;97813.53;5032392;28;20380;-59
2022/01/31 10:59:08;;;;;;;11.50;4.97;;;;;;;3.16;91.99;97806.72;5033988;28;20045;-60
2022/01/31 11:01:37;;;;;;;12.93;6.23;;;;;;;3.25;91.37;97795.72;5012974;28;20037;-58
2022/01/31 11:04:06;;;;;;;171.00;153.90;;;;;;;3.15;92.29;97787.31;5031976;28;20137;-60
2022/01/31 11:06:32;;;;;;;13.20;5.17;;;;;;;3.17;91.98;97770.44;5034123;28;20060;-60
2022/01/31 11:09:04;;;;;;;26.17;21.27;;;;;;;3.32;91.34;97748.41;5032170;28;20041;-61
2022/01/31 11:11:32;;;;;;;14.43;8.07;;;;;;;3.20;92.84;97726.53;5033812;28;20564;-58
2022/01/31 11:13:59;;;;;;;33.87;31.23;;;;;;;3.31;94.52;97736.63;5033961;28;20036;-60
2022/01/31 11:16:25;;;;;;;14.93;7.37;;;;;;;3.37;94.75;97737.41;5034390;28;20036;-59
2022/01/31 11:18:51;;;;;;;13.73;6.97;;;;;;;3.41;93.36;97723.88;5032086;28;20435;-59
2022/01/31 11:21:19;;;;;;;16.53;8.53;;;;;;;3.29;95.14;97718.88;5033146;28;20478;-61
2022/01/31 11:23:50;;;;;;;14.50;7.80;;;;;;;3.21;95.90;97726.53;5036932;28;20043;-59
2022/01/31 11:26:19;;;;;;;21.77;6.50;;;;;;;3.23;94.50;97708.75;5035427;28;20033;-60
2022/01/31 11:28:46;;;;;;;17.10;7.87;;;;;;;3.29;94.09;97713.81;5035708;28;20052;-60
2022/01/31 11:31:12;;;;;;;17.20;7.20;;;;;;;3.18;94.60;97696.13;5036222;28;20041;-60
2022/01/31 11:33:39;;;;;;;13.40;5.80;;;;;;;3.23;96.33;97689.34;5034456;28;20045;-61
2022/01/31 11:36:04;;;;;;;9.93;5.33;;;;;;;3.13;98.47;97686.88;5031064;28;20029;-61
2022/01/31 11:38:32;;;;;;;10.47;5.47;;;;;;;3.38;98.24;97683.38;5029995;28;20033;-60
2022/01/31 11:41:03;;;;;;;10.00;6.10;;;;;;;3.51;99.06;97674.00;5028051;28;20041;-60
2022/01/31 11:43:31;;;;;;;11.20;5.20;;;;;;;3.75;97.66;97663.69;5026886;28;20035;-60
2022/01/31 11:45:59;;;;;;;12.93;6.33;;;;;;;3.98;96.23;97664.34;5032238;28;20403;-60